Terminal Aerodrome Forecast
Issued by NWS

Home | Current Version | Previous Version | Graphics & Text | Print | Product List | Glossary Off
Versions: 1 2 3 4 5 6 7 8 9 10 11 12 13 14 15 16 17 18

000
FTUS43 KOAX 281141
TAFCDR
TAF
KCDR 281141Z 2812/2912 25006KT P6SM SCT150
     FM281500 27009KT P6SM BKN100
     FM282200 04008KT P6SM OVC040
     FM290100 02008KT 2SM -SN OVC025=

USA.gov is the U.S. government's official web portal to all federal, state and local government web resources and services.